Etusivu
METAR-TAF:

METAR-TAF

Lentoasemat :

Flin Flon, Manitoba, Kanada

Leveyspiiri: 54-41N, Pituuspiiri: 101-41W, korkeus merenpinnasta: 304 m

Tämänhetkinen sää

Tämä raportti tehtiin 11 tuntia ja 6 minuuttia sitten, kello 00.00 UTC
tyyntä
Lämpötila -15°C
Kosteus 65%
Ilmanpaine 1035 hPa
Näkyvyys: 24.1 km
Muutamia pilviä 3000 ft:n korkeudessa
Muutamia pilviä 25000 ft:n korkeudessa

METAR: CYFO 260000Z 00000KT 15SM FEW030 FEW250 M15/M20 A3057 RMK SC1CI1 LAST OBS/NEXT 261200UTC SLP386

Aika: 05:06 (11:06 UTC)


TAF: puuttuu

Säähavainnot ja -ennusteet yli 4000 lentoasemalta (METAR- ja TAF-raportit).

Käytössä olevat sääasemat on merkitty karttaan keltaisilla ja punaisilla pisteillä.

Aseta hiiri pisteen päälle nähdäksesi sääaseman nimen.

Klikkaa sitten nähdäksesi säähavainnot ja -ennusteet.

Kartan vaihtaminen: klikkaa mustalla rastilla varustettuja vihreitä pisteitä, niin voit zoomata sisään; viivalla varustettua vihreää pistettä, niin voit zoomata ulos tai vihreitä nuolia, niin pääset viereisille kartoille.


METAR-TAF: